Storm Events Database

Event Details

Event Lightning
State TEXAS
County/Area COLLIN
WFO FWD
Report Source Newspaper
NCDC Data Source CSV
Begin Date 2012-05-30 10:30:00.0 CST-6
Begin Location 4SSE FOOT
Begin Lat/Lon 33.16/-96.72
End Date 2012-05-30 10:30:00.0 CST-6
Deaths Direct/Indirect 0/0 (fatality details below, when available...)
Injuries Direct/Indirect 0/0
Property Damage 275.00K
Crop Damage 0.00K
Episode Narrative A surface low and an associated dryline remained over North Texas from the 29th through the early morning hours of the 31st. Several rounds of severe storms developed and moved across North Texas due to a very unstable atmosphere across the area. The main areas affected were the northern and northwestern areas of the County Warning Area. Hail up to the size of golfballs and wind gusts up to 70 MPH were reported from these storms.
Event Narrative A home on Laughing Waters Tr in McKinney was struck by lightning and destroyed by the ensuing fire.


     ‚Äč



All events for this episode:

Location County/Zone St. Date Time T.Z. Type Mag Dth Inj PrD CrD
Totals: 0 0 3.299M 0.00K
SLIDELL WISE CO. TX 05/29/2012 20:20 CST-6 Hail 0.75 in. 0 0 0.00K 0.00K
(DAL)LOVE FLD DALLAS DALLAS CO. TX 05/29/2012 21:34 CST-6 Thunderstorm Wind 50 kts. MG 0 0 4.00K 0.00K
SPRINGTOWN PARKER CO. TX 05/29/2012 22:00 CST-6 Thunderstorm Wind 52 kts. EG 0 0 3.00K 0.00K
ERA COOKE CO. TX 05/30/2012 01:20 CST-6 Hail 1.00 in. 0 0 0.00K 0.00K
VALLEY VIEW COOKE CO. TX 05/30/2012 01:22 CST-6 Hail 1.00 in. 0 0 0.00K 0.00K
VALLEY VIEW COOKE CO. TX 05/30/2012 01:27 CST-6 Thunderstorm Wind 56 kts. EG 0 0 40.00K 0.00K
AUBREY DENTON CO. TX 05/30/2012 01:45 CST-6 Hail 1.25 in. 0 0 0.00K 0.00K
LITTLE ELM DENTON CO. TX 05/30/2012 01:50 CST-6 Hail 1.00 in. 0 0 0.00K 0.00K
NAVO DENTON CO. TX 05/30/2012 01:52 CST-6 Hail 1.75 in. 0 0 7.00K 0.00K
LITTLE ELM DENTON CO. TX 05/30/2012 02:00 CST-6 Hail 1.00 in. 0 0 0.00K 0.00K
LITTLE ELM DENTON CO. TX 05/30/2012 02:07 CST-6 Hail 0.88 in. 0 0 0.00K 0.00K
LOLAVILLE COLLIN CO. TX 05/30/2012 02:25 CST-6 Thunderstorm Wind 62 kts. MG 0 0 15.00K 0.00K
GAINESVILLE COOKE CO. TX 05/30/2012 03:00 CST-6 Thunderstorm Wind 35 kts. EG 0 0 7.00K 0.00K
PEASTER PARKER CO. TX 05/30/2012 04:25 CST-6 Hail 1.75 in. 0 0 5.00K 0.00K
BOONSVILLE WISE CO. TX 05/30/2012 04:30 CST-6 Lightning 0 0 50.00K 0.00K
WEATHERFORD PARKER CO. TX 05/30/2012 04:35 CST-6 Hail 1.00 in. 0 0 0.00K 0.00K
WEATHERFORD PARKER CO. TX 05/30/2012 04:37 CST-6 Thunderstorm Wind 52 kts. EG 0 0 2.00K 0.00K
CLEBURNE JOHNSON CO. TX 05/30/2012 06:00 CST-6 Hail 1.75 in. 0 0 12.00K 0.00K
FAIRFIELD FREESTONE CO. TX 05/30/2012 06:45 CST-6 Lightning 0 0 15.00K 0.00K
AUBREY DENTON CO. TX 05/30/2012 09:33 CST-6 Hail 0.75 in. 0 0 0.00K 0.00K
AUBREY DENTON CO. TX 05/30/2012 09:35 CST-6 Hail 1.00 in. 0 0 0.00K 0.00K
FOOT COLLIN CO. TX 05/30/2012 10:15 CST-6 Lightning 0 0 275.00K 0.00K
LEBANON COLLIN CO. TX 05/30/2012 10:22 CST-6 Lightning 0 0 450.00K 0.00K
FOOT COLLIN CO. TX 05/30/2012 10:30 CST-6 Lightning 0 0 275.00K 0.00K
FOOT COLLIN CO. TX 05/30/2012 10:59 CST-6 Lightning 0 0 250.00K 0.00K
(ADS)ADDISON ARPT DA DALLAS CO. TX 05/30/2012 12:45 CST-6 Hail 0.88 in. 0 0 0.00K 0.00K
ADDISON DALLAS CO. TX 05/30/2012 12:57 CST-6 Hail 1.00 in. 0 0 0.00K 0.00K
ADDISON DALLAS CO. TX 05/30/2012 13:01 CST-6 Hail 0.75 in. 0 0 0.00K 0.00K
UNIVERSITY PARK DALLAS CO. TX 05/30/2012 13:08 CST-6 Hail 0.88 in. 0 0 0.00K 0.00K
NAVO DENTON CO. TX 05/30/2012 14:17 CST-6 Hail 1.50 in. 0 0 0.00K 0.00K
GRAPEVINE RES DENTON CO. TX 05/30/2012 20:30 CST-6 Lightning 0 0 900.00K 0.00K
OLNEY YOUNG CO. TX 05/30/2012 20:31 CST-6 Thunderstorm Wind 52 kts. EG 0 0 3.00K 0.00K
OLNEY YOUNG CO. TX 05/30/2012 20:31 CST-6 Hail 1.00 in. 0 0 0.00K 0.00K
OLNEY YOUNG CO. TX 05/30/2012 20:47 CST-6 Thunderstorm Wind 52 kts. EG 0 0 3.00K 0.00K
OLNEY YOUNG CO. TX 05/30/2012 20:47 CST-6 Thunderstorm Wind 52 kts. EG 0 0 2.00K 0.00K
GRAHAM MUNI ARPT YOUNG CO. TX 05/30/2012 20:55 CST-6 Thunderstorm Wind 51 kts. MG 0 0 2.00K 0.00K
JERMYN JACK CO. TX 05/30/2012 20:58 CST-6 Thunderstorm Wind 52 kts. EG 0 0 0.00K 0.00K
JACKSBORO JACK CO. TX 05/30/2012 21:15 CST-6 Thunderstorm Wind 56 kts. EG 0 0 10.00K 0.00K
MINERAL WELLS PALO PINTO CO. TX 05/30/2012 21:20 CST-6 Thunderstorm Wind 56 kts. EG 0 0 10.00K 0.00K
ROANOKE DENTON CO. TX 05/30/2012 21:45 CST-6 Lightning 0 0 500.00K 0.00K
PLANO COLLIN CO. TX 05/30/2012 22:30 CST-6 Hail 0.75 in. 0 0 0.00K 0.00K
MURPHY COLLIN CO. TX 05/30/2012 22:45 CST-6 Hail 0.75 in. 0 0 0.00K 0.00K
FATE ROCKWALL CO. TX 05/30/2012 23:10 CST-6 Hail 1.25 in. 0 0 0.00K 0.00K
ROYSE CITY ROCKWALL CO. TX 05/30/2012 23:15 CST-6 Hail 1.00 in. 0 0 0.00K 0.00K
NECHES ANDERSON CO. TX 05/31/2012 03:15 CST-6 Lightning 0 0 250.00K 0.00K
BOZ ELLIS CO. TX 05/31/2012 03:50 CST-6 Thunderstorm Wind 52 kts. EG 0 0 10.00K 0.00K
LONE ELM ELLIS CO. TX 05/31/2012 03:50 CST-6 Thunderstorm Wind 52 kts. EG 0 0 5.00K 0.00K
ITALY ELLIS CO. TX 05/31/2012 04:20 CST-6 Thunderstorm Wind 56 kts. EG 0 0 15.00K 0.00K
MILFORD ELLIS CO. TX 05/31/2012 04:25 CST-6 Thunderstorm Wind 56 kts. EG 0 0 4.00K 0.00K
PALESTINE ANDERSON CO. TX 05/31/2012 08:30 CST-6 Lightning 0 0 175.00K 0.00K
Totals: 0 0 3.299M 0.00K